Airfield :
LOGIN :

Register | Disclaimer

   EN    FR    IT 

 










Legend :    VFR   Marginal VFR   IFR   Intensive IFR   Very Intensive IFR
Visi :
Ceiling :
>= 8 km
>= 3000ft
5 to 8 km
1000 to 3000 ft
1500m to 5 km
500 to 1000 ft
800 to 1500m
200 to 500 ft
< 800m
< 200 ft
Symbols :   Thunderstorms  Fog  Heavy snow  Heavy precipitations  Wind > 20 kt
SIGMETs :     Misc.  Thunderstorms  Icing  Turbulence  Mountain Waves  Volcanic Ashes







- Airport Elevation : 80 ft
- IATA code : LPL
- Download approach charts


EGGP - Liverpool John Lennon

CURRENT METAR :
  • 121520Z 16007KT CAVOK 03/02 Q1005

EXPIRED METARs :
  • 121450Z 15006KT CAVOK 03/02 Q1005
  • 121420Z 14005KT CAVOK 03/02 Q1005
  • 121350Z 14005KT CAVOK 02/01 Q1005
  • 121320Z 16006KT CAVOK 02/01 Q1006
  • 121250Z 16006KT CAVOK 02/01 Q1006

TAF TAF EGGP
Valid from the 12 at 12:00 until the 13 at 12:00 UTC


121102Z 1212/1312 14004KT 9999 FEW045
BECMG 1214/1217 20013KT
TEMPO 1217/1223 22017G27KT 6000 RA BKN008
PROB30
TEMPO 1218/1223 4000 +RA BKN004
TEMPO 1223/1304 BKN004
BECMG 1307/1310 26012KT 6000 RA BKN012
PROB30
TEMPO 1310/1312 28018G28KT 4000 +RA BKN009
ATIS : +44 151 907 2000 (option 5 or ext 5150)
Met : +44 871 750 5150
No reported NOTAMs for that airfield.
1 SIGMET reported for the London FIR (EGTT) :
 
Severe turbulence
EGTT SIGMET 03 VALID 121500/121900 EGRR
EGTT LONDON FIR SEV TURB FCST WI N5100 W00726 - N5207 W00519 - N4934 W00416 - N4926 W00456 - N4901 W00703 - N5100 W00726 FL200/420 MOV E 05KT NC=



MET'MAP, your aeronautical weather chart ! - Copyright ORBIFLY December 2007 - Disclaimer

ORBIFLY MET'MAP TEAM :

Programming & Development : Alexandra Zaïnal
Concept & Development : Baudouin d'Aumeries
Co-Development & Prog : Marc-Olivier Méhu
Technical & hardware support : Manuel Goepfert

Contact : metmap@orbifly.com




SOURCES & CREDITS :

   NOAA